PWSweather.com
Personal Weather Stations
Station Observations
OLESAMETEO
Olesa De Montserrat, Olesa De MontserratES

Olesa De MontserratOlesa De MontserratES

Lat: 41.53982, Lon: 1.89508

Elevation: 110

Station Type: DAVIS VANTAGE VUE

http://olesameteo.net

Latest ConditionsUpdated 6:10:01 PM GMT+01:01 Sunday, Jan 26, 2020
Currently Today's Max Today's Min Today's Average
Temperature 55.0°F12.8°C 59.1°F15.1°C 42.7°F5.9°C 49.6°F9.8°C
Dew Point 46.5°F8.1°C 48.5°F9.2°C 40.3°F4.6°C 44.2°F6.8°C
Winds 1.2 mph NW1.9 kmh NW 3.5 mph -5.6 kmh - - 1.6 mph 2.6 kmh
Wind Gusts 3.5 mph5.6 kmh 8.1 mph13.0 kmh - -
Humidity 73% 92% 66% 82%
Pressure 30.13 in1020.3 mb 30.13 in1020.3 mb 30.04 in1017.3 mb -
Hour Temp Dew Point Humidity Winds Wind Gusts Pressure Precip Precip Rate Daily Precip Total
06:10 PM 55.0°F12.8°C 46.5°F8.1°C 73% 1.2 mph NW1.9 kmh NW 3.5 mph5.6 kmh 30.13 in1020.3 mb - 0.00 in0.0 mm 0.00 in0.0 mm
06:00 PM 55.3°F12.9°C 46.4°F8.0°C 72% 1.2 mph N1.9 kmh N 1.2 mph1.9 kmh 30.12 in1020.0 mb - 0.00 in0.0 mm 0.00 in0.0 mm
05:50 PM 55.7°F13.2°C 46.4°F8.0°C 71% Calm Calm -- 30.12 in1020.0 mb - 0.00 in0.0 mm 0.00 in0.0 mm
05:40 PM 56.0°F13.3°C 46.4°F8.0°C 70% 1.2 mph NNW1.9 kmh NNW 3.5 mph5.6 kmh 30.12 in1020.0 mb - 0.00 in0.0 mm 0.00 in0.0 mm
05:30 PM 56.3°F13.5°C 46.3°F7.9°C 69% 2.3 mph NNW3.7 kmh NNW 3.5 mph5.6 kmh 30.12 in1020.0 mb - 0.00 in0.0 mm 0.00 in0.0 mm
05:20 PM 56.6°F13.7°C 46.2°F7.9°C 68% 1.2 mph NNW1.9 kmh NNW 2.3 mph3.7 kmh 30.11 in1019.6 mb - 0.00 in0.0 mm 0.00 in0.0 mm
05:10 PM 56.8°F13.8°C 46.3°F7.9°C 68% 1.2 mph NNW1.9 kmh NNW 1.2 mph1.9 kmh 30.11 in1019.6 mb - 0.00 in0.0 mm 0.00 in0.0 mm
05:00 PM 57.0°F13.9°C 46.1°F7.8°C 67% 2.3 mph NNW3.7 kmh NNW 3.5 mph5.6 kmh 30.11 in1019.6 mb - 0.00 in0.0 mm 0.00 in0.0 mm
04:50 PM 57.1°F13.9°C 46.2°F7.9°C 67% 3.5 mph NW5.6 kmh NW 5.8 mph9.3 kmh 30.11 in1019.6 mb - 0.00 in0.0 mm 0.00 in0.0 mm
04:40 PM 57.2°F14.0°C 46.3°F7.9°C 67% 2.3 mph NNW3.7 kmh NNW 2.3 mph3.7 kmh 30.10 in1019.3 mb - 0.00 in0.0 mm 0.00 in0.0 mm
04:30 PM 57.5°F14.2°C 46.6°F8.1°C 67% 3.5 mph N5.6 kmh N 5.8 mph9.3 kmh 30.10 in1019.3 mb - 0.00 in0.0 mm 0.00 in0.0 mm
04:20 PM 57.4°F14.1°C 46.5°F8.1°C 67% 2.3 mph N3.7 kmh N 3.5 mph5.6 kmh 30.10 in1019.3 mb - 0.00 in0.0 mm 0.00 in0.0 mm
04:10 PM 57.5°F14.2°C 46.6°F8.1°C 67% 2.3 mph N3.7 kmh N 3.5 mph5.6 kmh 30.09 in1019.0 mb - 0.00 in0.0 mm 0.00 in0.0 mm
04:00 PM 57.7°F14.3°C 46.4°F8.0°C 66% 2.3 mph 3.7 kmh 3.5 mph5.6 kmh 30.09 in1019.0 mb - 0.00 in0.0 mm 0.00 in0.0 mm
03:50 PM 57.7°F14.3°C 46.4°F8.0°C 66% 3.5 mph N5.6 kmh N 4.6 mph7.4 kmh 30.09 in1019.0 mb - 0.00 in0.0 mm 0.00 in0.0 mm
03:40 PM 57.9°F14.4°C 46.6°F8.1°C 66% 2.3 mph N3.7 kmh N 5.8 mph9.3 kmh 30.09 in1019.0 mb - 0.00 in0.0 mm 0.00 in0.0 mm
03:30 PM 57.9°F14.4°C 46.6°F8.1°C 66% 2.3 mph N3.7 kmh N 3.5 mph5.6 kmh 30.09 in1019.0 mb - 0.00 in0.0 mm 0.00 in0.0 mm
03:20 PM 58.2°F14.6°C 46.9°F8.3°C 66% 1.2 mph N1.9 kmh N 3.5 mph5.6 kmh 30.08 in1018.6 mb - 0.00 in0.0 mm 0.00 in0.0 mm
03:10 PM 58.3°F14.6°C 47.0°F8.3°C 66% 2.3 mph NNE3.7 kmh NNE 4.6 mph7.4 kmh 30.08 in1018.6 mb - 0.00 in0.0 mm 0.00 in0.0 mm
03:00 PM 57.7°F14.3°C 46.8°F8.2°C 67% 2.3 mph N3.7 kmh N 3.5 mph5.6 kmh 30.08 in1018.6 mb - 0.00 in0.0 mm 0.00 in0.0 mm
02:50 PM 58.0°F14.4°C 46.7°F8.2°C 66% 2.3 mph NNW3.7 kmh NNW 3.5 mph5.6 kmh 30.08 in1018.6 mb - 0.00 in0.0 mm 0.00 in0.0 mm
02:40 PM 58.2°F14.6°C 47.3°F8.5°C 67% 2.3 mph N3.7 kmh N 5.8 mph9.3 kmh 30.08 in1018.6 mb - 0.00 in0.0 mm 0.00 in0.0 mm
02:30 PM 58.6°F14.8°C 47.7°F8.7°C 67% 2.3 mph NNW3.7 kmh NNW 4.6 mph7.4 kmh 30.08 in1018.6 mb - 0.00 in0.0 mm 0.00 in0.0 mm
02:20 PM 59.0°F15.0°C 48.1°F8.9°C 67% 2.3 mph N3.7 kmh N 4.6 mph7.4 kmh 30.08 in1018.6 mb - 0.00 in0.0 mm 0.00 in0.0 mm
02:10 PM 59.1°F15.1°C 48.1°F8.9°C 67% 2.3 mph N3.7 kmh N 3.5 mph5.6 kmh 30.08 in1018.6 mb - 0.00 in0.0 mm 0.00 in0.0 mm
02:00 PM 58.9°F14.9°C 48.4°F9.1°C 68% 1.2 mph NW1.9 kmh NW 4.6 mph7.4 kmh 30.08 in1018.6 mb - 0.00 in0.0 mm 0.00 in0.0 mm
01:50 PM 58.7°F14.8°C 48.2°F9.0°C 68% 2.3 mph N3.7 kmh N 5.8 mph9.3 kmh 30.08 in1018.6 mb - 0.00 in0.0 mm 0.00 in0.0 mm
01:40 PM 58.8°F14.9°C 48.3°F9.1°C 68% 3.5 mph N5.6 kmh N 4.6 mph7.4 kmh 30.08 in1018.6 mb - 0.00 in0.0 mm 0.00 in0.0 mm
01:30 PM 58.4°F14.7°C 48.3°F9.1°C 69% 1.2 mph N1.9 kmh N 3.5 mph5.6 kmh 30.09 in1019.0 mb - 0.00 in0.0 mm 0.00 in0.0 mm
01:20 PM 57.7°F14.3°C 48.4°F9.1°C 71% Calm Calm 2.3 mph3.7 kmh 30.09 in1019.0 mb - 0.00 in0.0 mm 0.00 in0.0 mm
01:10 PM 57.8°F14.3°C 48.5°F9.2°C 71% 1.2 mph WSW1.9 kmh WSW 3.5 mph5.6 kmh 30.09 in1019.0 mb - 0.00 in0.0 mm 0.00 in0.0 mm
01:00 PM 57.2°F14.0°C 48.3°F9.1°C 72% 2.3 mph NW3.7 kmh NW 3.5 mph5.6 kmh 30.09 in1019.0 mb - 0.00 in0.0 mm 0.00 in0.0 mm
12:40 PM 55.7°F13.2°C 47.5°F8.6°C 74% 1.2 mph NNW1.9 kmh NNW 3.5 mph5.6 kmh 30.09 in1019.0 mb - 0.00 in0.0 mm 0.00 in0.0 mm
12:30 PM 55.0°F12.8°C 47.2°F8.4°C 75% Calm Calm -- 30.10 in1019.3 mb - 0.00 in0.0 mm 0.00 in0.0 mm
12:20 PM 54.2°F12.3°C 46.8°F8.2°C 76% 1.2 mph NNW1.9 kmh NNW 3.5 mph5.6 kmh 30.10 in1019.3 mb - 0.00 in0.0 mm 0.00 in0.0 mm
12:10 PM 53.2°F11.8°C 46.1°F7.8°C 77% 2.3 mph NW3.7 kmh NW 3.5 mph5.6 kmh 30.10 in1019.3 mb - 0.00 in0.0 mm 0.00 in0.0 mm
12:00 PM 52.4°F11.3°C 45.7°F7.6°C 78% 2.3 mph N3.7 kmh N 3.5 mph5.6 kmh 30.10 in1019.3 mb - 0.00 in0.0 mm 0.00 in0.0 mm
11:50 AM 52.1°F11.2°C 45.4°F7.4°C 78% 2.3 mph N3.7 kmh N 2.3 mph3.7 kmh 30.10 in1019.3 mb - 0.00 in0.0 mm 0.00 in0.0 mm
11:40 AM 51.3°F10.7°C 45.0°F7.2°C 79% 2.3 mph N3.7 kmh N 3.5 mph5.6 kmh 30.11 in1019.6 mb - 0.00 in0.0 mm 0.00 in0.0 mm
11:30 AM 50.5°F10.3°C 44.6°F7.0°C 80% 2.3 mph NNW3.7 kmh NNW 3.5 mph5.6 kmh 30.11 in1019.6 mb - 0.00 in0.0 mm 0.00 in0.0 mm
11:20 AM 49.7°F9.8°C 44.1°F6.7°C 81% 2.3 mph NNW3.7 kmh NNW 3.5 mph5.6 kmh 30.11 in1019.6 mb - 0.00 in0.0 mm 0.00 in0.0 mm
11:10 AM 49.1°F9.5°C 43.9°F6.6°C 82% 3.5 mph NNW5.6 kmh NNW 4.6 mph7.4 kmh 30.11 in1019.6 mb - 0.00 in0.0 mm 0.00 in0.0 mm
11:00 AM 48.6°F9.2°C 43.4°F6.3°C 82% 1.2 mph N1.9 kmh N 3.5 mph5.6 kmh 30.10 in1019.3 mb - 0.00 in0.0 mm 0.00 in0.0 mm
10:50 AM 48.0°F8.9°C 43.1°F6.2°C 83% 2.3 mph NW3.7 kmh NW 3.5 mph5.6 kmh 30.10 in1019.3 mb - 0.00 in0.0 mm 0.00 in0.0 mm
10:40 AM 47.5°F8.6°C 42.9°F6.1°C 84% 2.3 mph N3.7 kmh N 3.5 mph5.6 kmh 30.10 in1019.3 mb - 0.00 in0.0 mm 0.00 in0.0 mm
10:30 AM 46.9°F8.3°C 42.7°F5.9°C 85% 2.3 mph NNW3.7 kmh NNW 5.8 mph9.3 kmh 30.10 in1019.3 mb - 0.00 in0.0 mm 0.00 in0.0 mm
10:20 AM 46.0°F7.8°C 42.3°F5.7°C 87% 3.5 mph NNW5.6 kmh NNW 6.9 mph11.1 kmh 30.09 in1019.0 mb - 0.00 in0.0 mm 0.00 in0.0 mm
10:10 AM 45.2°F7.3°C 41.9°F5.5°C 88% 3.5 mph N5.6 kmh N 6.9 mph11.1 kmh 30.09 in1019.0 mb - 0.00 in0.0 mm 0.00 in0.0 mm
10:00 AM 44.8°F7.1°C 41.8°F5.4°C 89% 1.2 mph NNW1.9 kmh NNW 3.5 mph5.6 kmh 30.09 in1019.0 mb - 0.00 in0.0 mm 0.00 in0.0 mm
09:50 AM 44.3°F6.8°C 41.6°F5.3°C 90% 1.2 mph NNW1.9 kmh NNW 3.5 mph5.6 kmh 30.09 in1019.0 mb - 0.00 in0.0 mm 0.00 in0.0 mm
09:40 AM 44.1°F6.7°C 41.1°F5.1°C 89% 3.5 mph NNW5.6 kmh NNW 5.8 mph9.3 kmh 30.09 in1019.0 mb - 0.00 in0.0 mm 0.00 in0.0 mm
09:30 AM 44.1°F6.7°C 41.4°F5.2°C 90% 2.3 mph NW3.7 kmh NW 3.5 mph5.6 kmh 30.08 in1018.6 mb - 0.00 in0.0 mm 0.00 in0.0 mm
09:20 AM 44.0°F6.7°C 41.3°F5.2°C 90% 2.3 mph NNE3.7 kmh NNE 3.5 mph5.6 kmh 30.08 in1018.6 mb - 0.00 in0.0 mm 0.00 in0.0 mm
09:10 AM 43.5°F6.4°C 41.0°F5.0°C 91% 2.3 mph NNW3.7 kmh NNW 4.6 mph7.4 kmh 30.08 in1018.6 mb - 0.00 in0.0 mm 0.00 in0.0 mm
09:00 AM 43.3°F6.3°C 40.9°F4.9°C 91% 2.3 mph NNW3.7 kmh NNW 4.6 mph7.4 kmh 30.07 in1018.3 mb - 0.00 in0.0 mm 0.00 in0.0 mm
08:50 AM 43.0°F6.1°C 40.8°F4.9°C 92% 1.2 mph NE1.9 kmh NE 3.5 mph5.6 kmh 30.07 in1018.3 mb - 0.00 in0.0 mm 0.00 in0.0 mm
08:40 AM 42.7°F5.9°C 40.5°F4.7°C 92% 2.3 mph NW3.7 kmh NW 8.1 mph13.0 kmh 30.07 in1018.3 mb - 0.00 in0.0 mm 0.00 in0.0 mm
08:30 AM 42.7°F5.9°C 40.3°F4.6°C 91% 1.2 mph N1.9 kmh N 3.5 mph5.6 kmh 30.07 in1018.3 mb - 0.00 in0.0 mm 0.00 in0.0 mm
08:20 AM 43.0°F6.1°C 40.5°F4.7°C 91% 1.2 mph N1.9 kmh N 3.5 mph5.6 kmh 30.07 in1018.3 mb - 0.00 in0.0 mm 0.00 in0.0 mm
08:10 AM 42.9°F6.1°C 40.5°F4.7°C 91% 1.2 mph NNE1.9 kmh NNE 2.3 mph3.7 kmh 30.06 in1017.9 mb - 0.00 in0.0 mm 0.00 in0.0 mm
08:00 AM 43.0°F6.1°C 40.6°F4.8°C 91% 2.3 mph N3.7 kmh N 3.5 mph5.6 kmh 30.06 in1017.9 mb - 0.00 in0.0 mm 0.00 in0.0 mm
07:50 AM 43.1°F6.2°C 40.7°F4.8°C 91% 2.3 mph NW3.7 kmh NW 4.6 mph7.4 kmh 30.06 in1017.9 mb - 0.00 in0.0 mm 0.00 in0.0 mm
07:40 AM 43.3°F6.3°C 40.8°F4.9°C 91% 2.3 mph NW3.7 kmh NW 3.5 mph5.6 kmh 30.05 in1017.6 mb - 0.00 in0.0 mm 0.00 in0.0 mm
07:30 AM 43.5°F6.4°C 40.8°F4.9°C 90% 2.3 mph N3.7 kmh N 3.5 mph5.6 kmh 30.05 in1017.6 mb - 0.00 in0.0 mm 0.00 in0.0 mm
07:20 AM 43.7°F6.5°C 41.0°F5.0°C 90% 1.2 mph NNW1.9 kmh NNW 2.3 mph3.7 kmh 30.05 in1017.6 mb - 0.00 in0.0 mm 0.00 in0.0 mm
07:10 AM 43.8°F6.6°C 41.0°F5.0°C 90% 1.2 mph NNE1.9 kmh NNE 2.3 mph3.7 kmh 30.05 in1017.6 mb - 0.00 in0.0 mm 0.00 in0.0 mm
07:00 AM 43.9°F6.6°C 41.2°F5.1°C 90% 2.3 mph N3.7 kmh N 3.5 mph5.6 kmh 30.05 in1017.6 mb - 0.00 in0.0 mm 0.00 in0.0 mm
06:50 AM 43.9°F6.6°C 41.2°F5.1°C 90% 1.2 mph NNE1.9 kmh NNE 3.5 mph5.6 kmh 30.05 in1017.6 mb - 0.00 in0.0 mm 0.00 in0.0 mm
06:40 AM 44.0°F6.7°C 41.3°F5.2°C 90% 1.2 mph NW1.9 kmh NW 3.5 mph5.6 kmh 30.04 in1017.3 mb - 0.00 in0.0 mm 0.00 in0.0 mm
06:30 AM 44.2°F6.8°C 41.5°F5.3°C 90% 2.3 mph N3.7 kmh N 4.6 mph7.4 kmh 30.04 in1017.3 mb - 0.00 in0.0 mm 0.00 in0.0 mm
06:20 AM 44.2°F6.8°C 41.5°F5.3°C 90% 2.3 mph NNW3.7 kmh NNW 5.8 mph9.3 kmh 30.04 in1017.3 mb - 0.00 in0.0 mm 0.00 in0.0 mm
06:10 AM 44.4°F6.9°C 41.7°F5.4°C 90% 1.2 mph NNW1.9 kmh NNW 3.5 mph5.6 kmh 30.04 in1017.3 mb - 0.00 in0.0 mm 0.00 in0.0 mm
06:00 AM 44.4°F6.9°C 41.7°F5.4°C 90% 2.3 mph NW3.7 kmh NW 4.6 mph7.4 kmh 30.04 in1017.3 mb - 0.00 in0.0 mm 0.00 in0.0 mm
05:50 AM 44.4°F6.9°C 41.9°F5.5°C 91% 1.2 mph W1.9 kmh W 3.5 mph5.6 kmh 30.04 in1017.3 mb - 0.00 in0.0 mm 0.00 in0.0 mm
05:40 AM 44.3°F6.8°C 41.8°F5.4°C 91% 2.3 mph NW3.7 kmh NW 3.5 mph5.6 kmh 30.04 in1017.3 mb - 0.00 in0.0 mm 0.00 in0.0 mm
05:30 AM 44.4°F6.9°C 41.9°F5.5°C 91% 2.3 mph NW3.7 kmh NW 3.5 mph5.6 kmh 30.04 in1017.3 mb - 0.00 in0.0 mm 0.00 in0.0 mm
05:20 AM 44.4°F6.9°C 41.9°F5.5°C 91% 1.2 mph NNW1.9 kmh NNW 3.5 mph5.6 kmh 30.04 in1017.3 mb - 0.00 in0.0 mm 0.00 in0.0 mm
05:10 AM 44.4°F6.9°C 41.9°F5.5°C 91% 2.3 mph NW3.7 kmh NW 3.5 mph5.6 kmh 30.04 in1017.3 mb - 0.00 in0.0 mm 0.00 in0.0 mm
05:00 AM 44.6°F7.0°C 42.1°F5.6°C 91% 3.5 mph N5.6 kmh N 3.5 mph5.6 kmh 30.05 in1017.6 mb - 0.00 in0.0 mm 0.00 in0.0 mm
04:50 AM 44.8°F7.1°C 42.3°F5.7°C 91% 1.2 mph N1.9 kmh N 2.3 mph3.7 kmh 30.05 in1017.6 mb - 0.00 in0.0 mm 0.00 in0.0 mm
04:40 AM 44.9°F7.2°C 42.4°F5.8°C 91% 2.3 mph NW3.7 kmh NW 3.5 mph5.6 kmh 30.05 in1017.6 mb - 0.00 in0.0 mm 0.00 in0.0 mm
04:30 AM 45.1°F7.3°C 42.6°F5.9°C 91% 1.2 mph N1.9 kmh N 2.3 mph3.7 kmh 30.04 in1017.3 mb - 0.00 in0.0 mm 0.00 in0.0 mm
04:20 AM 45.4°F7.4°C 42.6°F5.9°C 90% 3.5 mph N5.6 kmh N 4.6 mph7.4 kmh 30.05 in1017.6 mb - 0.00 in0.0 mm 0.00 in0.0 mm
04:10 AM 45.8°F7.7°C 43.0°F6.1°C 90% 3.5 mph N5.6 kmh N 6.9 mph11.1 kmh 30.05 in1017.6 mb - 0.00 in0.0 mm 0.00 in0.0 mm
04:00 AM 45.9°F7.7°C 43.2°F6.2°C 90% 1.2 mph N1.9 kmh N 3.5 mph5.6 kmh 30.05 in1017.6 mb - 0.00 in0.0 mm 0.00 in0.0 mm
03:50 AM 46.1°F7.8°C 43.3°F6.3°C 90% 2.3 mph N3.7 kmh N 3.5 mph5.6 kmh 30.05 in1017.6 mb - 0.00 in0.0 mm 0.00 in0.0 mm
03:40 AM 46.2°F7.9°C 43.4°F6.3°C 90% Calm Calm 1.2 mph1.9 kmh 30.04 in1017.3 mb - 0.00 in0.0 mm 0.00 in0.0 mm
03:30 AM 46.4°F8.0°C 43.6°F6.4°C 90% 1.2 mph NNW1.9 kmh NNW 3.5 mph5.6 kmh 30.05 in1017.6 mb - 0.00 in0.0 mm 0.00 in0.0 mm
03:20 AM 46.6°F8.1°C 43.8°F6.6°C 90% Calm Calm 1.2 mph1.9 kmh 30.05 in1017.6 mb - 0.00 in0.0 mm 0.00 in0.0 mm
03:10 AM 46.7°F8.2°C 43.9°F6.6°C 90% Calm Calm 1.2 mph1.9 kmh 30.05 in1017.6 mb - 0.00 in0.0 mm 0.00 in0.0 mm
03:00 AM 46.9°F8.3°C 44.1°F6.7°C 90% Calm Calm 2.3 mph3.7 kmh 30.05 in1017.6 mb - 0.00 in0.0 mm 0.00 in0.0 mm
02:50 AM 47.0°F8.3°C 44.2°F6.8°C 90% Calm Calm -- 30.05 in1017.6 mb - 0.00 in0.0 mm 0.00 in0.0 mm
02:40 AM 47.0°F8.3°C 44.5°F6.9°C 91% 1.2 mph WSW1.9 kmh WSW 2.3 mph3.7 kmh 30.05 in1017.6 mb - 0.00 in0.0 mm 0.00 in0.0 mm
02:30 AM 46.8°F8.2°C 44.6°F7.0°C 92% Calm Calm -- 30.05 in1017.6 mb - 0.00 in0.0 mm 0.00 in0.0 mm
02:20 AM 46.6°F8.1°C 44.1°F6.7°C 91% Calm Calm -- 30.05 in1017.6 mb - 0.00 in0.0 mm 0.00 in0.0 mm
02:10 AM 46.8°F8.2°C 44.1°F6.7°C 90% Calm Calm -- 30.05 in1017.6 mb - 0.00 in0.0 mm 0.00 in0.0 mm
02:00 AM 47.5°F8.6°C 44.7°F7.1°C 90% Calm Calm -- 30.05 in1017.6 mb - 0.00 in0.0 mm 0.00 in0.0 mm
01:50 AM 47.9°F8.8°C 44.8°F7.1°C 89% Calm Calm -- 30.05 in1017.6 mb - 0.00 in0.0 mm 0.00 in0.0 mm
01:40 AM 48.0°F8.9°C 44.9°F7.2°C 89% Calm Calm -- 30.05 in1017.6 mb - 0.00 in0.0 mm 0.00 in0.0 mm
01:30 AM 48.3°F9.1°C 45.2°F7.3°C 89% Calm Calm 1.2 mph1.9 kmh 30.05 in1017.6 mb - 0.00 in0.0 mm 0.00 in0.0 mm
01:20 AM 48.2°F9.0°C 45.1°F7.3°C 89% Calm Calm 1.2 mph1.9 kmh 30.05 in1017.6 mb - 0.00 in0.0 mm 0.00 in0.0 mm
01:10 AM 48.3°F9.1°C 45.2°F7.3°C 89% Calm Calm 3.5 mph5.6 kmh 30.05 in1017.6 mb - 0.00 in0.0 mm 0.00 in0.0 mm
01:00 AM 48.1°F8.9°C 45.3°F7.4°C 90% Calm Calm 1.2 mph1.9 kmh 30.05 in1017.6 mb - 0.00 in0.0 mm 0.00 in0.0 mm
12:50 AM 48.1°F8.9°C 45.3°F7.4°C 90% Calm Calm -- 30.05 in1017.6 mb - 0.00 in0.0 mm 0.00 in0.0 mm
12:40 AM 47.8°F8.8°C 45.3°F7.4°C 91% Calm Calm -- 30.06 in1017.9 mb - 0.00 in0.0 mm 0.00 in0.0 mm
12:30 AM 47.5°F8.6°C 45.0°F7.2°C 91% Calm Calm -- 30.06 in1017.9 mb - 0.00 in0.0 mm 0.00 in0.0 mm
12:20 AM 47.3°F8.5°C 45.1°F7.3°C 92% Calm Calm -- 30.06 in1017.9 mb - 0.00 in0.0 mm 0.00 in0.0 mm
12:10 AM 47.2°F8.4°C 45.0°F7.2°C 92% Calm Calm -- 30.06 in1017.9 mb - 0.00 in0.0 mm 0.00 in0.0 mm
12:00 AM 47.1°F8.4°C 44.6°F7.0°C 91% Calm Calm -- 30.07 in1018.3 mb - 0.00 in0.0 mm 0.00 in0.0 mm